sensor_id;sensor_type;location;lat;lon;timestamp;P1;durP1;ratioP1;P2;durP2;ratioP2
40116;SDS011;25829;50.228;18.936;2023-02-02T00:02:48;7.13;;;3.17;;
40116;SDS011;25829;50.228;18.936;2023-02-02T00:05:50;4.87;;;2.83;;
40116;SDS011;25829;50.228;18.936;2023-02-02T00:08:52;7.77;;;3.63;;
40116;SDS011;25829;50.228;18.936;2023-02-02T00:12:04;6.97;;;3.77;;
40116;SDS011;25829;50.228;18.936;2023-02-02T00:15:14;3.43;;;2.57;;
40116;SDS011;25829;50.228;18.936;2023-02-02T00:18:17;3.93;;;2.20;;
40116;SDS011;25829;50.228;18.936;2023-02-02T00:21:18;3.70;;;2.63;;
40116;SDS011;25829;50.228;18.936;2023-02-02T00:24:28;4.27;;;2.60;;
40116;SDS011;25829;50.228;18.936;2023-02-02T00:27:34;5.47;;;3.20;;
40116;SDS011;25829;50.228;18.936;2023-02-02T00:30:38;4.87;;;3.30;;
40116;SDS011;25829;50.228;18.936;2023-02-02T00:33:49;4.93;;;3.00;;
40116;SDS011;25829;50.228;18.936;2023-02-02T00:36:50;7.77;;;4.10;;
40116;SDS011;25829;50.228;18.936;2023-02-02T00:39:51;7.70;;;3.57;;
40116;SDS011;25829;50.228;18.936;2023-02-02T00:42:52;5.60;;;2.93;;
40116;SDS011;25829;50.228;18.936;2023-02-02T00:45:56;4.70;;;3.40;;
40116;SDS011;25829;50.228;18.936;2023-02-02T00:48:59;8.53;;;4.60;;
40116;SDS011;25829;50.228;18.936;2023-02-02T00:52:00;3.27;;;2.73;;
40116;SDS011;25829;50.228;18.936;2023-02-02T00:55:07;6.97;;;4.70;;
40116;SDS011;25829;50.228;18.936;2023-02-02T00:58:12;5.57;;;3.73;;
40116;SDS011;25829;50.228;18.936;2023-02-02T01:01:15;4.93;;;3.87;;
40116;SDS011;25829;50.228;18.936;2023-02-02T01:04:18;8.63;;;4.13;;
40116;SDS011;25829;50.228;18.936;2023-02-02T01:07:20;8.50;;;4.90;;
40116;SDS011;25829;50.228;18.936;2023-02-02T01:10:20;4.37;;;3.43;;
40116;SDS011;25829;50.228;18.936;2023-02-02T01:13:21;9.90;;;4.90;;
40116;SDS011;25829;50.228;18.936;2023-02-02T01:16:22;15.27;;;6.67;;
40116;SDS011;25829;50.228;18.936;2023-02-02T01:19:24;11.70;;;6.40;;
40116;SDS011;25829;50.228;18.936;2023-02-02T01:22:26;13.00;;;6.73;;
40116;SDS011;25829;50.228;18.936;2023-02-02T01:25:27;7.70;;;4.43;;
40116;SDS011;25829;50.228;18.936;2023-02-02T01:28:29;15.70;;;7.10;;
40116;SDS011;25829;50.228;18.936;2023-02-02T01:31:33;9.27;;;5.40;;
40116;SDS011;25829;50.228;18.936;2023-02-02T01:34:51;9.30;;;5.60;;
40116;SDS011;25829;50.228;18.936;2023-02-02T01:37:55;7.63;;;5.00;;
40116;SDS011;25829;50.228;18.936;2023-02-02T01:40:56;8.60;;;4.60;;
40116;SDS011;25829;50.228;18.936;2023-02-02T01:43:58;15.97;;;6.20;;
40116;SDS011;25829;50.228;18.936;2023-02-02T01:47:07;10.63;;;6.37;;
40116;SDS011;25829;50.228;18.936;2023-02-02T01:50:08;8.50;;;5.20;;
40116;SDS011;25829;50.228;18.936;2023-02-02T01:53:11;11.77;;;6.20;;
40116;SDS011;25829;50.228;18.936;2023-02-02T01:56:14;11.27;;;6.23;;
40116;SDS011;25829;50.228;18.936;2023-02-02T01:59:21;7.10;;;4.30;;
40116;SDS011;25829;50.228;18.936;2023-02-02T02:02:24;15.27;;;5.17;;
40116;SDS011;25829;50.228;18.936;2023-02-02T02:05:28;6.13;;;4.30;;
40116;SDS011;25829;50.228;18.936;2023-02-02T02:08:37;8.13;;;4.43;;
40116;SDS011;25829;50.228;18.936;2023-02-02T02:11:40;8.70;;;4.40;;
40116;SDS011;25829;50.228;18.936;2023-02-02T02:14:42;6.93;;;4.10;;
40116;SDS011;25829;50.228;18.936;2023-02-02T02:18:17;15.00;;;5.67;;
40116;SDS011;25829;50.228;18.936;2023-02-02T02:36:04;11.93;;;5.10;;
40116;SDS011;25829;50.228;18.936;2023-02-02T02:39:22;9.20;;;4.60;;
40116;SDS011;25829;50.228;18.936;2023-02-02T02:42:32;6.83;;;3.60;;
40116;SDS011;25829;50.228;18.936;2023-02-02T02:45:44;6.80;;;3.73;;
40116;SDS011;25829;50.228;18.936;2023-02-02T02:48:47;7.10;;;3.70;;
40116;SDS011;25829;50.228;18.936;2023-02-02T02:51:50;7.77;;;3.53;;
40116;SDS011;25829;50.228;18.936;2023-02-02T02:55:06;6.20;;;3.20;;
40116;SDS011;25829;50.228;18.936;2023-02-02T02:58:15;14.23;;;5.87;;
40116;SDS011;25829;50.228;18.936;2023-02-02T03:02:12;5.60;;;2.93;;
40116;SDS011;25829;50.228;18.936;2023-02-02T03:05:10;8.37;;;3.63;;
40116;SDS011;25829;50.228;18.936;2023-02-02T03:11:39;14.07;;;5.97;;
40116;SDS011;25829;50.228;18.936;2023-02-02T03:14:40;11.57;;;5.63;;
40116;SDS011;25829;50.228;18.936;2023-02-02T03:17:42;10.57;;;4.27;;
40116;SDS011;25829;50.228;18.936;2023-02-02T03:20:43;8.73;;;4.43;;
40116;SDS011;25829;50.228;18.936;2023-02-02T03:23:44;9.50;;;4.17;;
40116;SDS011;25829;50.228;18.936;2023-02-02T03:26:45;16.03;;;5.97;;
40116;SDS011;25829;50.228;18.936;2023-02-02T03:29:46;16.50;;;5.40;;
40116;SDS011;25829;50.228;18.936;2023-02-02T03:32:47;8.93;;;4.33;;
40116;SDS011;25829;50.228;18.936;2023-02-02T03:35:49;9.03;;;4.00;;
40116;SDS011;25829;50.228;18.936;2023-02-02T03:38:50;10.73;;;4.53;;
40116;SDS011;25829;50.228;18.936;2023-02-02T03:41:51;10.13;;;3.63;;
40116;SDS011;25829;50.228;18.936;2023-02-02T03:44:52;7.63;;;3.23;;
40116;SDS011;25829;50.228;18.936;2023-02-02T03:47:55;8.27;;;2.50;;
40116;SDS011;25829;50.228;18.936;2023-02-02T03:50:56;9.23;;;3.50;;
40116;SDS011;25829;50.228;18.936;2023-02-02T03:53:57;11.27;;;4.07;;
40116;SDS011;25829;50.228;18.936;2023-02-02T03:56:58;8.40;;;4.00;;
40116;SDS011;25829;50.228;18.936;2023-02-02T03:59:59;15.87;;;5.03;;
40116;SDS011;25829;50.228;18.936;2023-02-02T04:02:59;15.83;;;6.00;;
40116;SDS011;25829;50.228;18.936;2023-02-02T04:06:00;10.17;;;4.40;;
40116;SDS011;25829;50.228;18.936;2023-02-02T04:09:01;13.87;;;4.63;;
40116;SDS011;25829;50.228;18.936;2023-02-02T04:12:02;13.77;;;5.57;;
40116;SDS011;25829;50.228;18.936;2023-02-02T04:15:03;11.50;;;5.00;;
40116;SDS011;25829;50.228;18.936;2023-02-02T04:18:04;22.43;;;6.73;;
40116;SDS011;25829;50.228;18.936;2023-02-02T04:21:08;16.33;;;4.80;;
40116;SDS011;25829;50.228;18.936;2023-02-02T04:24:13;14.93;;;4.77;;
40116;SDS011;25829;50.228;18.936;2023-02-02T04:27:14;20.23;;;6.13;;
40116;SDS011;25829;50.228;18.936;2023-02-02T04:30:15;11.90;;;5.07;;
40116;SDS011;25829;50.228;18.936;2023-02-02T04:33:16;13.17;;;5.23;;
40116;SDS011;25829;50.228;18.936;2023-02-02T04:36:17;19.17;;;5.53;;
40116;SDS011;25829;50.228;18.936;2023-02-02T04:39:18;12.77;;;4.10;;
40116;SDS011;25829;50.228;18.936;2023-02-02T04:46:05;15.87;;;5.20;;
40116;SDS011;25829;50.228;18.936;2023-02-02T04:49:09;18.27;;;6.30;;
40116;SDS011;25829;50.228;18.936;2023-02-02T04:52:20;13.53;;;5.23;;
40116;SDS011;25829;50.228;18.936;2023-02-02T04:55:21;8.77;;;3.80;;
40116;SDS011;25829;50.228;18.936;2023-02-02T04:58:22;8.20;;;3.30;;
40116;SDS011;25829;50.228;18.936;2023-02-02T05:01:26;17.00;;;6.03;;
40116;SDS011;25829;50.228;18.936;2023-02-02T05:04:28;18.33;;;6.23;;
40116;SDS011;25829;50.228;18.936;2023-02-02T05:07:29;11.17;;;4.77;;
40116;SDS011;25829;50.228;18.936;2023-02-02T05:10:30;9.10;;;4.37;;
40116;SDS011;25829;50.228;18.936;2023-02-02T05:13:31;7.80;;;3.87;;
40116;SDS011;25829;50.228;18.936;2023-02-02T05:16:31;9.23;;;3.90;;
40116;SDS011;25829;50.228;18.936;2023-02-02T05:19:32;10.60;;;4.77;;
40116;SDS011;25829;50.228;18.936;2023-02-02T05:22:33;10.53;;;4.50;;
40116;SDS011;25829;50.228;18.936;2023-02-02T05:25:51;11.27;;;3.63;;
40116;SDS011;25829;50.228;18.936;2023-02-02T05:28:52;14.07;;;4.10;;
40116;SDS011;25829;50.228;18.936;2023-02-02T05:31:56;12.03;;;4.40;;
40116;SDS011;25829;50.228;18.936;2023-02-02T05:35:00;20.23;;;6.30;;
40116;SDS011;25829;50.228;18.936;2023-02-02T05:38:01;26.07;;;7.40;;
40116;SDS011;25829;50.228;18.936;2023-02-02T05:41:05;18.20;;;6.40;;
40116;SDS011;25829;50.228;18.936;2023-02-02T05:44:10;17.67;;;5.70;;
40116;SDS011;25829;50.228;18.936;2023-02-02T05:47:14;16.27;;;4.63;;
40116;SDS011;25829;50.228;18.936;2023-02-02T05:50:17;13.03;;;4.37;;
40116;SDS011;25829;50.228;18.936;2023-02-02T05:53:20;10.30;;;5.47;;
40116;SDS011;25829;50.228;18.936;2023-02-02T05:56:24;17.13;;;6.13;;
40116;SDS011;25829;50.228;18.936;2023-02-02T05:59:25;12.93;;;4.87;;
40116;SDS011;25829;50.228;18.936;2023-02-02T06:02:30;14.33;;;5.60;;
40116;SDS011;25829;50.228;18.936;2023-02-02T06:05:31;19.67;;;6.30;;
40116;SDS011;25829;50.228;18.936;2023-02-02T06:08:34;11.30;;;4.43;;
40116;SDS011;25829;50.228;18.936;2023-02-02T06:11:38;11.43;;;4.47;;
40116;SDS011;25829;50.228;18.936;2023-02-02T06:14:39;14.23;;;4.37;;
40116;SDS011;25829;50.228;18.936;2023-02-02T06:17:40;6.37;;;3.57;;
40116;SDS011;25829;50.228;18.936;2023-02-02T06:20:42;7.43;;;3.70;;
40116;SDS011;25829;50.228;18.936;2023-02-02T06:23:43;7.70;;;4.17;;
40116;SDS011;25829;50.228;18.936;2023-02-02T06:26:45;8.40;;;3.63;;
40116;SDS011;25829;50.228;18.936;2023-02-02T06:29:45;8.40;;;3.63;;
40116;SDS011;25829;50.228;18.936;2023-02-02T06:32:46;7.47;;;3.23;;
40116;SDS011;25829;50.228;18.936;2023-02-02T06:35:47;10.20;;;4.53;;
40116;SDS011;25829;50.228;18.936;2023-02-02T06:38:48;17.20;;;6.03;;
40116;SDS011;25829;50.228;18.936;2023-02-02T06:41:50;16.10;;;5.93;;
40116;SDS011;25829;50.228;18.936;2023-02-02T06:44:51;9.90;;;4.70;;
40116;SDS011;25829;50.228;18.936;2023-02-02T06:47:52;9.67;;;4.50;;
40116;SDS011;25829;50.228;18.936;2023-02-02T06:50:53;11.10;;;5.27;;
40116;SDS011;25829;50.228;18.936;2023-02-02T06:54:00;11.03;;;5.17;;
40116;SDS011;25829;50.228;18.936;2023-02-02T06:57:03;13.80;;;5.63;;
40116;SDS011;25829;50.228;18.936;2023-02-02T07:00:10;12.40;;;4.97;;
40116;SDS011;25829;50.228;18.936;2023-02-02T07:03:21;12.23;;;4.83;;
40116;SDS011;25829;50.228;18.936;2023-02-02T07:06:22;10.13;;;4.13;;
40116;SDS011;25829;50.228;18.936;2023-02-02T07:09:26;9.57;;;4.37;;
40116;SDS011;25829;50.228;18.936;2023-02-02T07:12:26;8.87;;;3.80;;
40116;SDS011;25829;50.228;18.936;2023-02-02T07:15:37;8.87;;;3.93;;
40116;SDS011;25829;50.228;18.936;2023-02-02T07:18:42;7.27;;;3.90;;
40116;SDS011;25829;50.228;18.936;2023-02-02T07:21:43;13.50;;;4.40;;
40116;SDS011;25829;50.228;18.936;2023-02-02T07:24:50;12.57;;;4.37;;
40116;SDS011;25829;50.228;18.936;2023-02-02T07:27:51;9.00;;;4.67;;
40116;SDS011;25829;50.228;18.936;2023-02-02T07:30:53;8.63;;;3.83;;
40116;SDS011;25829;50.228;18.936;2023-02-02T07:33:53;8.67;;;3.83;;
40116;SDS011;25829;50.228;18.936;2023-02-02T07:37:03;10.20;;;4.30;;
40116;SDS011;25829;50.228;18.936;2023-02-02T07:40:08;9.13;;;4.10;;
40116;SDS011;25829;50.228;18.936;2023-02-02T07:43:16;6.00;;;3.53;;
40116;SDS011;25829;50.228;18.936;2023-02-02T07:46:27;15.30;;;5.50;;
40116;SDS011;25829;50.228;18.936;2023-02-02T07:49:52;11.07;;;4.90;;
40116;SDS011;25829;50.228;18.936;2023-02-02T07:52:57;7.17;;;4.20;;
40116;SDS011;25829;50.228;18.936;2023-02-02T07:56:29;11.53;;;4.60;;
40116;SDS011;25829;50.228;18.936;2023-02-02T07:59:35;9.63;;;5.00;;
40116;SDS011;25829;50.228;18.936;2023-02-02T08:02:38;17.13;;;6.03;;
40116;SDS011;25829;50.228;18.936;2023-02-02T08:05:39;13.27;;;5.80;;
40116;SDS011;25829;50.228;18.936;2023-02-02T08:08:43;10.60;;;5.07;;
40116;SDS011;25829;50.228;18.936;2023-02-02T08:11:50;9.43;;;5.37;;
40116;SDS011;25829;50.228;18.936;2023-02-02T08:14:51;12.77;;;5.40;;
40116;SDS011;25829;50.228;18.936;2023-02-02T08:17:52;14.40;;;5.87;;
40116;SDS011;25829;50.228;18.936;2023-02-02T08:20:56;11.00;;;5.60;;
40116;SDS011;25829;50.228;18.936;2023-02-02T08:23:58;13.13;;;5.30;;
40116;SDS011;25829;50.228;18.936;2023-02-02T08:27:17;12.13;;;6.33;;
40116;SDS011;25829;50.228;18.936;2023-02-02T08:35:10;9.53;;;4.73;;
40116;SDS011;25829;50.228;18.936;2023-02-02T08:38:30;11.83;;;5.90;;
40116;SDS011;25829;50.228;18.936;2023-02-02T08:45:46;16.00;;;6.43;;
40116;SDS011;25829;50.228;18.936;2023-02-02T08:48:56;9.77;;;4.70;;
40116;SDS011;25829;50.228;18.936;2023-02-02T08:52:09;9.97;;;4.40;;
40116;SDS011;25829;50.228;18.936;2023-02-02T08:55:22;8.23;;;3.40;;
40116;SDS011;25829;50.228;18.936;2023-02-02T08:58:26;3.50;;;2.20;;
40116;SDS011;25829;50.228;18.936;2023-02-02T09:01:32;5.90;;;2.73;;
40116;SDS011;25829;50.228;18.936;2023-02-02T09:04:37;6.57;;;2.93;;
40116;SDS011;25829;50.228;18.936;2023-02-02T09:07:38;6.20;;;3.37;;
40116;SDS011;25829;50.228;18.936;2023-02-02T09:10:47;8.77;;;3.57;;
40116;SDS011;25829;50.228;18.936;2023-02-02T09:13:51;7.00;;;3.23;;
40116;SDS011;25829;50.228;18.936;2023-02-02T09:16:54;10.40;;;4.77;;
40116;SDS011;25829;50.228;18.936;2023-02-02T09:19:58;5.93;;;3.87;;
40116;SDS011;25829;50.228;18.936;2023-02-02T09:22:59;11.47;;;5.10;;
40116;SDS011;25829;50.228;18.936;2023-02-02T09:29:18;6.30;;;3.47;;
40116;SDS011;25829;50.228;18.936;2023-02-02T09:32:38;9.47;;;4.83;;
40116;SDS011;25829;50.228;18.936;2023-02-02T09:35:39;7.53;;;4.50;;
40116;SDS011;25829;50.228;18.936;2023-02-02T09:38:46;6.83;;;4.23;;
40116;SDS011;25829;50.228;18.936;2023-02-02T09:45:50;9.80;;;4.07;;
40116;SDS011;25829;50.228;18.936;2023-02-02T09:49:01;5.47;;;3.63;;
40116;SDS011;25829;50.228;18.936;2023-02-02T09:56:03;6.93;;;4.27;;
40116;SDS011;25829;50.228;18.936;2023-02-02T09:59:48;8.80;;;4.67;;
40116;SDS011;25829;50.228;18.936;2023-02-02T10:03:01;4.90;;;3.50;;
40116;SDS011;25829;50.228;18.936;2023-02-02T10:13:30;4.63;;;3.23;;
40116;SDS011;25829;50.228;18.936;2023-02-02T10:16:54;3.90;;;3.20;;
40116;SDS011;25829;50.228;18.936;2023-02-02T10:20:38;6.63;;;4.43;;
40116;SDS011;25829;50.228;18.936;2023-02-02T10:24:14;4.87;;;3.23;;
40116;SDS011;25829;50.228;18.936;2023-02-02T10:27:39;6.30;;;3.60;;
40116;SDS011;25829;50.228;18.936;2023-02-02T10:39:02;4.93;;;2.83;;
40116;SDS011;25829;50.228;18.936;2023-02-02T10:46:07;2.27;;;1.83;;
40116;SDS011;25829;50.228;18.936;2023-02-02T10:53:41;2.80;;;1.93;;
40116;SDS011;25829;50.228;18.936;2023-02-02T10:57:18;2.57;;;2.10;;
40116;SDS011;25829;50.228;18.936;2023-02-02T11:03:53;3.77;;;2.13;;
40116;SDS011;25829;50.228;18.936;2023-02-02T11:07:20;3.77;;;2.20;;
40116;SDS011;25829;50.228;18.936;2023-02-02T11:10:33;5.43;;;2.33;;
40116;SDS011;25829;50.228;18.936;2023-02-02T11:13:41;5.03;;;2.70;;
40116;SDS011;25829;50.228;18.936;2023-02-02T11:20:32;4.23;;;2.53;;
40116;SDS011;25829;50.228;18.936;2023-02-02T11:27:30;6.00;;;2.77;;
40116;SDS011;25829;50.228;18.936;2023-02-02T11:30:35;5.63;;;2.83;;
40116;SDS011;25829;50.228;18.936;2023-02-02T11:34:16;7.07;;;3.00;;
40116;SDS011;25829;50.228;18.936;2023-02-02T11:53:26;6.53;;;2.50;;
40116;SDS011;25829;50.228;18.936;2023-02-02T11:56:29;4.50;;;2.80;;
40116;SDS011;25829;50.228;18.936;2023-02-02T12:06:59;4.47;;;2.27;;
40116;SDS011;25829;50.228;18.936;2023-02-02T12:10:13;3.60;;;2.20;;
40116;SDS011;25829;50.228;18.936;2023-02-02T12:17:37;3.90;;;2.83;;
40116;SDS011;25829;50.228;18.936;2023-02-02T12:24:37;4.27;;;2.23;;
40116;SDS011;25829;50.228;18.936;2023-02-02T12:31:58;4.03;;;2.07;;
40116;SDS011;25829;50.228;18.936;2023-02-02T12:49:25;11.37;;;5.37;;
40116;SDS011;25829;50.228;18.936;2023-02-02T12:59:47;6.00;;;2.80;;
40116;SDS011;25829;50.228;18.936;2023-02-02T13:06:43;5.20;;;2.60;;
40116;SDS011;25829;50.228;18.936;2023-02-02T13:13:44;4.77;;;2.37;;
40116;SDS011;25829;50.228;18.936;2023-02-02T13:16:49;5.67;;;2.37;;
40116;SDS011;25829;50.228;18.936;2023-02-02T13:20:03;7.57;;;2.20;;
40116;SDS011;25829;50.228;18.936;2023-02-02T13:23:22;3.90;;;2.30;;
40116;SDS011;25829;50.228;18.936;2023-02-02T13:26:33;3.90;;;2.50;;
40116;SDS011;25829;50.228;18.936;2023-02-02T13:29:46;5.00;;;2.47;;
40116;SDS011;25829;50.228;18.936;2023-02-02T13:32:53;6.13;;;2.90;;
40116;SDS011;25829;50.228;18.936;2023-02-02T13:36:43;5.30;;;2.50;;
40116;SDS011;25829;50.228;18.936;2023-02-02T14:02:01;4.77;;;2.83;;
40116;SDS011;25829;50.228;18.936;2023-02-02T14:05:04;7.00;;;3.07;;
40116;SDS011;25829;50.228;18.936;2023-02-02T14:08:21;5.13;;;2.80;;
40116;SDS011;25829;50.228;18.936;2023-02-02T14:11:49;6.87;;;3.13;;
40116;SDS011;25829;50.228;18.936;2023-02-02T14:15:00;4.90;;;2.93;;
40116;SDS011;25829;50.228;18.936;2023-02-02T14:18:01;7.80;;;3.00;;
40116;SDS011;25829;50.228;18.936;2023-02-02T14:21:02;4.90;;;3.00;;
40116;SDS011;25829;50.228;18.936;2023-02-02T14:31:53;7.57;;;3.67;;
40116;SDS011;25829;50.228;18.936;2023-02-02T14:42:19;5.57;;;3.50;;
40116;SDS011;25829;50.228;18.936;2023-02-02T14:50:02;4.87;;;2.80;;
40116;SDS011;25829;50.228;18.936;2023-02-02T15:00:05;6.03;;;2.90;;
40116;SDS011;25829;50.228;18.936;2023-02-02T15:03:34;5.60;;;3.30;;
40116;SDS011;25829;50.228;18.936;2023-02-02T15:06:50;5.97;;;3.97;;
40116;SDS011;25829;50.228;18.936;2023-02-02T15:26:21;8.40;;;3.90;;
40116;SDS011;25829;50.228;18.936;2023-02-02T15:29:32;9.87;;;4.37;;
40116;SDS011;25829;50.228;18.936;2023-02-02T15:32:49;9.67;;;4.80;;
40116;SDS011;25829;50.228;18.936;2023-02-02T15:35:56;7.73;;;4.60;;
40116;SDS011;25829;50.228;18.936;2023-02-02T15:39:03;9.60;;;4.63;;
40116;SDS011;25829;50.228;18.936;2023-02-02T15:42:19;6.67;;;4.23;;
40116;SDS011;25829;50.228;18.936;2023-02-02T15:45:51;6.23;;;3.90;;
40116;SDS011;25829;50.228;18.936;2023-02-02T15:52:31;6.60;;;4.07;;
40116;SDS011;25829;50.228;18.936;2023-02-02T15:55:34;9.40;;;4.17;;
40116;SDS011;25829;50.228;18.936;2023-02-02T15:58:36;6.30;;;3.90;;
40116;SDS011;25829;50.228;18.936;2023-02-02T16:01:43;7.43;;;4.37;;
40116;SDS011;25829;50.228;18.936;2023-02-02T16:04:47;8.27;;;4.43;;
40116;SDS011;25829;50.228;18.936;2023-02-02T16:07:48;7.60;;;4.03;;
40116;SDS011;25829;50.228;18.936;2023-02-02T16:10:49;6.73;;;4.73;;
40116;SDS011;25829;50.228;18.936;2023-02-02T16:14:03;7.97;;;4.67;;
40116;SDS011;25829;50.228;18.936;2023-02-02T16:20:20;8.63;;;5.07;;
40116;SDS011;25829;50.228;18.936;2023-02-02T16:23:32;10.37;;;5.97;;
40116;SDS011;25829;50.228;18.936;2023-02-02T16:26:37;12.13;;;7.03;;
40116;SDS011;25829;50.228;18.936;2023-02-02T16:29:38;14.90;;;7.50;;
40116;SDS011;25829;50.228;18.936;2023-02-02T16:32:46;17.93;;;8.50;;
40116;SDS011;25829;50.228;18.936;2023-02-02T16:36:28;10.63;;;5.90;;
40116;SDS011;25829;50.228;18.936;2023-02-02T16:39:29;11.23;;;5.43;;
40116;SDS011;25829;50.228;18.936;2023-02-02T16:42:32;8.57;;;5.37;;
40116;SDS011;25829;50.228;18.936;2023-02-02T16:49:27;11.50;;;6.13;;
40116;SDS011;25829;50.228;18.936;2023-02-02T16:52:29;12.97;;;7.10;;
40116;SDS011;25829;50.228;18.936;2023-02-02T16:56:37;15.23;;;7.23;;
40116;SDS011;25829;50.228;18.936;2023-02-02T16:59:40;12.23;;;7.47;;
40116;SDS011;25829;50.228;18.936;2023-02-02T17:02:49;11.03;;;6.07;;
40116;SDS011;25829;50.228;18.936;2023-02-02T17:05:59;9.90;;;6.30;;
40116;SDS011;25829;50.228;18.936;2023-02-02T17:09:16;8.23;;;4.70;;
40116;SDS011;25829;50.228;18.936;2023-02-02T17:12:28;6.73;;;3.90;;
40116;SDS011;25829;50.228;18.936;2023-02-02T17:15:31;8.27;;;4.30;;
40116;SDS011;25829;50.228;18.936;2023-02-02T17:18:33;9.33;;;4.40;;
40116;SDS011;25829;50.228;18.936;2023-02-02T17:21:34;8.03;;;4.70;;
40116;SDS011;25829;50.228;18.936;2023-02-02T17:24:35;6.53;;;4.83;;
40116;SDS011;25829;50.228;18.936;2023-02-02T17:27:36;6.40;;;3.90;;
40116;SDS011;25829;50.228;18.936;2023-02-02T17:30:43;7.63;;;4.40;;
40116;SDS011;25829;50.228;18.936;2023-02-02T17:33:46;9.07;;;3.70;;
40116;SDS011;25829;50.228;18.936;2023-02-02T17:36:47;5.63;;;3.53;;
40116;SDS011;25829;50.228;18.936;2023-02-02T17:39:48;5.90;;;3.07;;
40116;SDS011;25829;50.228;18.936;2023-02-02T17:42:50;7.43;;;4.40;;
40116;SDS011;25829;50.228;18.936;2023-02-02T17:45:52;7.30;;;4.33;;
40116;SDS011;25829;50.228;18.936;2023-02-02T17:48:53;6.10;;;3.80;;
40116;SDS011;25829;50.228;18.936;2023-02-02T17:51:54;8.33;;;4.30;;
40116;SDS011;25829;50.228;18.936;2023-02-02T17:54:54;6.87;;;3.70;;
40116;SDS011;25829;50.228;18.936;2023-02-02T17:58:02;5.93;;;3.63;;
40116;SDS011;25829;50.228;18.936;2023-02-02T18:01:03;4.80;;;3.47;;
40116;SDS011;25829;50.228;18.936;2023-02-02T18:04:04;9.10;;;4.23;;
40116;SDS011;25829;50.228;18.936;2023-02-02T18:07:05;6.00;;;3.47;;
40116;SDS011;25829;50.228;18.936;2023-02-02T18:10:13;8.17;;;4.13;;
40116;SDS011;25829;50.228;18.936;2023-02-02T18:13:14;6.87;;;4.20;;
40116;SDS011;25829;50.228;18.936;2023-02-02T18:16:18;6.57;;;3.50;;
40116;SDS011;25829;50.228;18.936;2023-02-02T18:19:20;8.90;;;3.90;;
40116;SDS011;25829;50.228;18.936;2023-02-02T18:22:22;7.87;;;4.20;;
40116;SDS011;25829;50.228;18.936;2023-02-02T18:25:24;5.50;;;3.73;;
40116;SDS011;25829;50.228;18.936;2023-02-02T18:28:25;6.93;;;3.77;;
40116;SDS011;25829;50.228;18.936;2023-02-02T18:31:25;6.03;;;3.17;;
40116;SDS011;25829;50.228;18.936;2023-02-02T18:34:30;6.90;;;3.47;;
40116;SDS011;25829;50.228;18.936;2023-02-02T18:37:31;6.00;;;3.77;;
40116;SDS011;25829;50.228;18.936;2023-02-02T18:40:32;7.23;;;4.40;;
40116;SDS011;25829;50.228;18.936;2023-02-02T18:43:35;5.13;;;3.43;;
40116;SDS011;25829;50.228;18.936;2023-02-02T18:46:39;6.57;;;3.77;;
40116;SDS011;25829;50.228;18.936;2023-02-02T18:49:39;7.63;;;4.47;;
40116;SDS011;25829;50.228;18.936;2023-02-02T18:52:40;5.97;;;4.07;;
40116;SDS011;25829;50.228;18.936;2023-02-02T18:55:41;6.50;;;4.30;;
40116;SDS011;25829;50.228;18.936;2023-02-02T18:58:42;6.57;;;4.10;;
40116;SDS011;25829;50.228;18.936;2023-02-02T19:01:43;8.57;;;4.73;;
40116;SDS011;25829;50.228;18.936;2023-02-02T19:04:44;8.13;;;4.50;;
40116;SDS011;25829;50.228;18.936;2023-02-02T19:08:03;7.77;;;4.50;;
40116;SDS011;25829;50.228;18.936;2023-02-02T19:11:08;9.73;;;4.30;;
40116;SDS011;25829;50.228;18.936;2023-02-02T19:14:14;6.30;;;4.07;;
40116;SDS011;25829;50.228;18.936;2023-02-02T19:17:45;7.37;;;4.37;;
40116;SDS011;25829;50.228;18.936;2023-02-02T19:20:55;8.27;;;4.57;;
40116;SDS011;25829;50.228;18.936;2023-02-02T19:24:05;7.37;;;4.13;;
40116;SDS011;25829;50.228;18.936;2023-02-02T19:27:17;8.27;;;4.37;;
40116;SDS011;25829;50.228;18.936;2023-02-02T19:30:34;4.97;;;3.50;;
40116;SDS011;25829;50.228;18.936;2023-02-02T19:33:39;7.53;;;4.30;;
40116;SDS011;25829;50.228;18.936;2023-02-02T19:36:41;7.40;;;4.33;;
40116;SDS011;25829;50.228;18.936;2023-02-02T19:39:46;6.70;;;4.53;;
40116;SDS011;25829;50.228;18.936;2023-02-02T19:42:48;9.20;;;5.47;;
40116;SDS011;25829;50.228;18.936;2023-02-02T19:46:01;10.23;;;5.00;;
40116;SDS011;25829;50.228;18.936;2023-02-02T19:52:32;9.77;;;4.53;;
40116;SDS011;25829;50.228;18.936;2023-02-02T19:55:34;5.93;;;4.23;;
40116;SDS011;25829;50.228;18.936;2023-02-02T19:58:39;9.20;;;4.73;;
40116;SDS011;25829;50.228;18.936;2023-02-02T20:01:40;7.00;;;4.50;;
40116;SDS011;25829;50.228;18.936;2023-02-02T20:04:45;7.73;;;4.50;;
40116;SDS011;25829;50.228;18.936;2023-02-02T20:07:46;6.47;;;4.13;;
40116;SDS011;25829;50.228;18.936;2023-02-02T20:14:29;6.13;;;3.60;;
40116;SDS011;25829;50.228;18.936;2023-02-02T20:17:35;8.60;;;4.37;;
40116;SDS011;25829;50.228;18.936;2023-02-02T20:20:42;9.83;;;3.83;;
40116;SDS011;25829;50.228;18.936;2023-02-02T20:23:44;5.93;;;3.47;;
40116;SDS011;25829;50.228;18.936;2023-02-02T20:26:45;5.50;;;3.60;;
40116;SDS011;25829;50.228;18.936;2023-02-02T20:29:50;4.93;;;3.90;;
40116;SDS011;25829;50.228;18.936;2023-02-02T20:32:54;6.20;;;3.97;;
40116;SDS011;25829;50.228;18.936;2023-02-02T20:36:00;6.93;;;3.87;;
40116;SDS011;25829;50.228;18.936;2023-02-02T20:42:24;7.07;;;4.00;;
40116;SDS011;25829;50.228;18.936;2023-02-02T20:45:25;7.17;;;4.13;;
40116;SDS011;25829;50.228;18.936;2023-02-02T20:48:28;7.97;;;4.20;;
40116;SDS011;25829;50.228;18.936;2023-02-02T20:51:29;9.37;;;4.60;;
40116;SDS011;25829;50.228;18.936;2023-02-02T20:54:30;9.17;;;4.70;;
40116;SDS011;25829;50.228;18.936;2023-02-02T20:57:33;8.57;;;5.07;;
40116;SDS011;25829;50.228;18.936;2023-02-02T21:00:34;8.27;;;4.60;;
40116;SDS011;25829;50.228;18.936;2023-02-02T21:03:35;10.43;;;5.33;;
40116;SDS011;25829;50.228;18.936;2023-02-02T21:06:37;9.23;;;5.07;;
40116;SDS011;25829;50.228;18.936;2023-02-02T21:09:44;11.70;;;5.23;;
40116;SDS011;25829;50.228;18.936;2023-02-02T21:12:46;9.73;;;5.23;;
40116;SDS011;25829;50.228;18.936;2023-02-02T21:15:47;8.50;;;4.97;;
40116;SDS011;25829;50.228;18.936;2023-02-02T21:18:47;10.73;;;4.97;;
40116;SDS011;25829;50.228;18.936;2023-02-02T21:21:49;9.53;;;4.53;;
40116;SDS011;25829;50.228;18.936;2023-02-02T21:24:49;8.60;;;4.70;;
40116;SDS011;25829;50.228;18.936;2023-02-02T21:27:50;11.07;;;5.13;;
40116;SDS011;25829;50.228;18.936;2023-02-02T21:30:51;10.77;;;4.80;;
40116;SDS011;25829;50.228;18.936;2023-02-02T21:33:54;7.63;;;4.83;;
40116;SDS011;25829;50.228;18.936;2023-02-02T21:36:55;11.13;;;5.37;;
40116;SDS011;25829;50.228;18.936;2023-02-02T21:39:57;7.83;;;4.63;;
40116;SDS011;25829;50.228;18.936;2023-02-02T21:42:59;8.17;;;4.70;;
40116;SDS011;25829;50.228;18.936;2023-02-02T21:46:18;7.80;;;5.00;;
40116;SDS011;25829;50.228;18.936;2023-02-02T21:49:24;10.57;;;5.47;;
40116;SDS011;25829;50.228;18.936;2023-02-02T21:52:28;7.20;;;4.50;;
40116;SDS011;25829;50.228;18.936;2023-02-02T21:55:33;7.30;;;4.33;;
40116;SDS011;25829;50.228;18.936;2023-02-02T21:58:35;11.27;;;5.03;;
40116;SDS011;25829;50.228;18.936;2023-02-02T22:01:44;5.83;;;3.67;;
40116;SDS011;25829;50.228;18.936;2023-02-02T22:04:47;6.30;;;4.23;;
40116;SDS011;25829;50.228;18.936;2023-02-02T22:07:49;7.63;;;3.90;;
40116;SDS011;25829;50.228;18.936;2023-02-02T22:10:52;6.93;;;3.77;;